HBKLL LSZF-LSZL

Flight info

Callsign HBKLL
Flight time 0h 28m
Altitude 18000
Route WIL/N0265F170
Aircraft SF50/L-SDGRWY/L

Departure

Time 2026-05-06 12:37
Airport Birrfeld Airfield (LSZF)

Arrival

Time 2026-05-06 13:06
Airport Locarno Airport (LSZL)
Time Latitude Longitude Altitude Speed Heading
2026-05-06 12:32 47.44403 8.23062 1312 ft 0 kts 78°
2026-05-06 12:35 47.44403 8.23066 1311 ft 3 kts 68°
2026-05-06 12:35 47.44407 8.23080 1311 ft 2 kts 145°
2026-05-06 12:35 47.44369 8.23067 1312 ft 9 kts 261°
2026-05-06 12:35 47.44358 8.22971 1308 ft 10 kts 259°
2026-05-06 12:36 47.44344 8.22901 1309 ft 5 kts 233°
2026-05-06 12:36 47.44312 8.22891 1309 ft 1 kts 72°
2026-05-06 12:36 47.44320 8.22974 1309 ft 35 kts 83°
2026-05-06 12:36 47.44399 8.23670 1312 ft 99 kts 79°
2026-05-06 12:37 47.44497 8.24809 1612 ft 127 kts 85°
2026-05-06 12:37 47.44381 8.26101 2319 ft 124 kts 132°
2026-05-06 12:37 47.43648 8.26306 3103 ft 115 kts 191°
2026-05-06 12:37 47.42927 8.25804 3715 ft 117 kts 228°
2026-05-06 12:38 47.42389 8.24837 4351 ft 127 kts 231°
2026-05-06 12:38 47.41759 8.23864 5023 ft 133 kts 228°
2026-05-06 12:38 47.41100 8.22915 5832 ft 130 kts 226°
2026-05-06 12:38 47.40434 8.21981 6482 ft 134 kts 226°
2026-05-06 12:39 47.39767 8.21044 7112 ft 133 kts 226°
2026-05-06 12:39 47.39091 8.20097 7712 ft 134 kts 226°
2026-05-06 12:39 47.38413 8.19150 8316 ft 134 kts 226°
2026-05-06 12:39 47.37717 8.18188 8873 ft 137 kts 226°
2026-05-06 12:40 47.37042 8.17233 9673 ft 133 kts 225°
2026-05-06 12:40 47.36359 8.16296 10388 ft 135 kts 225°
2026-05-06 12:40 47.35723 8.15371 11028 ft 141 kts 225°
2026-05-06 12:40 47.34995 8.14384 11720 ft 143 kts 224°
2026-05-06 12:41 47.34262 8.13355 12453 ft 148 kts 225°
2026-05-06 12:41 47.33508 8.12306 13213 ft 150 kts 224°
2026-05-06 12:41 47.32746 8.11240 13925 ft 153 kts 222°
2026-05-06 12:41 47.31960 8.10161 14483 ft 157 kts 223°
2026-05-06 12:42 47.31157 8.09067 15023 ft 159 kts 222°
2026-05-06 12:42 47.30367 8.07945 15521 ft 158 kts 223°
2026-05-06 12:42 47.29583 8.06845 15999 ft 159 kts 221°
2026-05-06 12:42 47.28774 8.05725 16456 ft 161 kts 221°
2026-05-06 12:43 47.27952 8.04587 16918 ft 163 kts 221°
2026-05-06 12:43 47.27120 8.03434 17383 ft 165 kts 220°
2026-05-06 12:43 47.26273 8.02261 17788 ft 172 kts 220°
2026-05-06 12:43 47.25339 8.00971 17827 ft 200 kts 220°
2026-05-06 12:44 47.24266 7.99485 17846 ft 226 kts 221°
2026-05-06 12:44 47.23077 7.97832 17850 ft 243 kts 221°
2026-05-06 12:44 47.21811 7.96087 17851 ft 253 kts 219°
2026-05-06 12:44 47.20325 7.94662 17848 ft 258 kts 205°
2026-05-06 12:45 47.18618 7.93795 17858 ft 261 kts 192°
2026-05-06 12:45 47.16801 7.93562 17859 ft 264 kts 179°
2026-05-06 12:45 47.13277 7.95087 17847 ft 270 kts 152°
2026-05-06 12:46 47.11718 7.96616 17852 ft 270 kts 148°
2026-05-06 12:46 47.10163 7.98150 17864 ft 268 kts 149°
2026-05-06 12:46 47.08643 7.99639 17860 ft 264 kts 149°
2026-05-06 12:46 47.07121 8.01134 17863 ft 263 kts 149°
2026-05-06 12:47 47.05587 8.02641 17856 ft 265 kts 149°
2026-05-06 12:47 47.04058 8.04143 17857 ft 265 kts 149°
2026-05-06 12:47 47.02526 8.05646 17863 ft 265 kts 149°
2026-05-06 12:47 47.00995 8.07147 17879 ft 265 kts 149°
2026-05-06 12:48 46.99463 8.08648 17888 ft 265 kts 149°
2026-05-06 12:48 46.97930 8.10148 17890 ft 265 kts 149°
2026-05-06 12:48 46.96412 8.11633 17891 ft 265 kts 149°
2026-05-06 12:48 46.94878 8.13132 17891 ft 265 kts 149°
2026-05-06 12:49 46.93344 8.14631 17888 ft 265 kts 150°
2026-05-06 12:49 46.91810 8.16129 17888 ft 265 kts 150°
2026-05-06 12:49 46.90274 8.17627 17891 ft 265 kts 150°
2026-05-06 12:49 46.88741 8.19121 17873 ft 266 kts 149°
2026-05-06 12:50 46.87219 8.20605 17885 ft 265 kts 149°
2026-05-06 12:50 46.85684 8.22099 17879 ft 264 kts 149°
2026-05-06 12:50 46.84154 8.23588 17878 ft 264 kts 149°
2026-05-06 12:50 46.82624 8.25074 17877 ft 264 kts 149°
2026-05-06 12:51 46.81091 8.26564 17901 ft 264 kts 149°
2026-05-06 12:51 46.79555 8.28054 17901 ft 265 kts 149°
2026-05-06 12:51 46.78020 8.29545 17898 ft 264 kts 149°
2026-05-06 12:51 46.76485 8.31032 17902 ft 265 kts 149°
2026-05-06 12:52 46.75016 8.32455 17899 ft 265 kts 149°
2026-05-06 12:52 46.73481 8.33937 17991 ft 263 kts 149°
2026-05-06 12:52 46.71952 8.35421 17907 ft 265 kts 149°
2026-05-06 12:52 46.70422 8.36901 17909 ft 264 kts 149°
2026-05-06 12:53 46.68885 8.38385 17902 ft 265 kts 149°
2026-05-06 12:53 46.67352 8.39863 17895 ft 264 kts 149°
2026-05-06 12:53 46.65820 8.41342 17897 ft 264 kts 149°
2026-05-06 12:53 46.64295 8.42813 17896 ft 263 kts 149°
2026-05-06 12:54 46.62767 8.44286 17879 ft 264 kts 149°
2026-05-06 12:54 46.61240 8.45755 17886 ft 264 kts 149°
2026-05-06 12:54 46.59706 8.47229 17886 ft 265 kts 149°
2026-05-06 12:54 46.58165 8.48712 17871 ft 265 kts 149°
2026-05-06 12:55 46.56654 8.50165 17883 ft 264 kts 149°
2026-05-06 12:55 46.55128 8.51631 17874 ft 262 kts 150°
2026-05-06 12:55 46.53616 8.53081 17886 ft 260 kts 150°
2026-05-06 12:55 46.52096 8.54536 17887 ft 262 kts 150°
2026-05-06 12:56 46.50577 8.55992 17874 ft 260 kts 150°
2026-05-06 12:56 46.49072 8.57436 17881 ft 258 kts 150°
2026-05-06 12:56 46.47564 8.58879 17882 ft 260 kts 150°
2026-05-06 12:56 46.46051 8.60322 17884 ft 261 kts 150°
2026-05-06 12:57 46.44530 8.61774 17880 ft 262 kts 150°
2026-05-06 12:57 46.43004 8.63234 17885 ft 262 kts 150°
2026-05-06 12:57 46.41482 8.64688 17887 ft 262 kts 150°
2026-05-06 12:57 46.39953 8.66145 17903 ft 263 kts 150°
2026-05-06 12:58 46.38420 8.67604 17893 ft 264 kts 150°
2026-05-06 12:58 46.36930 8.69028 17520 ft 248 kts 150°
2026-05-06 12:58 46.35530 8.70364 16845 ft 237 kts 151°
2026-05-06 12:58 46.34136 8.71677 15889 ft 241 kts 152°
2026-05-06 12:59 46.32699 8.72892 14814 ft 243 kts 149°
2026-05-06 12:59 46.31473 8.74573 13876 ft 255 kts 127°
2026-05-06 12:59 46.30743 8.76943 13022 ft 256 kts 115°
2026-05-06 12:59 46.30148 8.79387 11922 ft 261 kts 113°
2026-05-06 13:00 46.29492 8.81818 10842 ft 256 kts 124°
2026-05-06 13:00 46.28364 8.83782 9777 ft 252 kts 140°
2026-05-06 13:00 46.27100 8.85525 8477 ft 252 kts 142°
2026-05-06 13:00 46.25856 8.87058 8707 ft 211 kts 145°
2026-05-06 13:01 46.24607 8.88280 9228 ft 225 kts 147°
2026-05-06 13:01 46.23301 8.89764 8934 ft 247 kts 142°
2026-05-06 13:01 46.22116 8.91263 8527 ft 214 kts 146°
2026-05-06 13:01 46.20920 8.92630 7669 ft 220 kts 139°
2026-05-06 13:02 46.20032 8.94327 7371 ft 204 kts 122°
2026-05-06 13:02 46.19947 8.96274 6088 ft 217 kts 71°
2026-05-06 13:02 46.19974 8.98129 5343 ft 164 kts 125°
2026-05-06 13:02 46.19137 8.98924 4276 ft 147 kts 207°
2026-05-06 13:03 46.18548 8.97944 3623 ft 125 kts 241°
2026-05-06 13:03 46.18215 8.96816 3192 ft 119 kts 251°
2026-05-06 13:03 46.17972 8.95761 2605 ft 113 kts 253°
2026-05-06 13:03 46.17763 8.94745 2147 ft 97 kts 249°
2026-05-06 13:04 46.17537 8.93774 1629 ft 99 kts 254°
2026-05-06 13:04 46.17299 8.92891 1225 ft 92 kts 242°
2026-05-06 13:04 46.17010 8.92033 850 ft 88 kts 253°
2026-05-06 13:04 46.17018 8.91250 911 ft 76 kts 255°
2026-05-06 13:05 46.16789 8.90417 848 ft 89 kts 248°
2026-05-06 13:05 46.16668 8.89552 831 ft 85 kts 263°
2026-05-06 13:05 46.16637 8.88569 722 ft 101 kts 255°
2026-05-06 13:05 46.16524 8.87770 654 ft 54 kts 257°
2026-05-06 13:06 46.16502 8.87621 654 ft 0 kts 257°
2026-05-06 13:06 46.16475 8.87604 651 ft 9 kts 170°
2026-05-06 13:06 46.16445 8.87542 651 ft 0 kts 256°
2026-05-06 13:06 46.16437 8.87486 650 ft 2 kts 248°
2026-05-06 13:07 46.16437 8.87484 650 ft 0 kts 248°
2026-05-06 13:07 46.16418 8.87471 649 ft 9 kts 170°
2026-05-06 13:07 46.16244 8.87501 646 ft 16 kts 167°
2026-05-06 13:08 46.16253 8.87526 645 ft 8 kts 269°
2026-05-06 13:08 46.16262 8.87594 649 ft 12 kts 242°
2026-05-06 13:08 46.16258 8.87621 649 ft 0 kts 351°
2026-05-06 13:08 46.16244 8.87627 649 ft 0 kts 359°